Time;durP1;ratioP1;P1;durP2;ratioP2;P2;SDS_P1;SDS_P2;PMS_P1;PMS_P2;Temp;Humidity;BMP_temperature;BMP_pressure;BME280_temperature;BME280_humidity;BME280_pressure;Samples;Min_cycle;Max_cycle;Signal;HPM_P1;HPM_P2
2023/07/11 00:02:09;;;;;;;0.03;0.03;;;;;;;17.09;82.70;100102.63;7352148;19;20055;-64
2023/07/11 00:04:35;;;;;;;0.10;0.10;;;;;;;17.07;83.11;100097.41;7347195;19;20040;-62
2023/07/11 00:07:01;;;;;;;0.10;0.10;;;;;;;17.04;83.46;100086.22;7350286;19;20014;-63
2023/07/11 00:09:26;;;;;;;0.00;0.00;;;;;;;17.03;83.03;100081.84;7354408;19;20592;-63
2023/07/11 00:11:52;;;;;;;0.00;0.00;;;;;;;17.02;83.01;100095.97;7359217;19;20014;-64
2023/07/11 00:14:17;;;;;;;0.10;0.10;;;;;;;16.99;82.66;100083.00;7352766;19;20134;-63
2023/07/11 00:16:43;;;;;;;0.00;0.00;;;;;;;16.86;82.89;100061.75;7360981;19;20011;-64
2023/07/11 00:19:10;;;;;;;0.00;0.00;;;;;;;16.94;82.91;100083.25;7357063;19;20030;-64
2023/07/11 00:21:36;;;;;;;0.00;0.00;;;;;;;16.91;82.97;100088.72;7358580;19;20019;-64
2023/07/11 00:24:05;;;;;;;0.10;0.10;;;;;;;16.85;82.73;100092.56;7360301;19;20595;-64
2023/07/11 00:26:33;;;;;;;0.10;0.10;;;;;;;16.85;82.99;100108.38;7353908;19;20018;-64
2023/07/11 00:29:00;;;;;;;;;;;;;;;16.86;80.31;100114.50;7358188;19;20017;-63
2023/07/11 00:31:25;;;;;;;0.00;0.00;;;;;;;16.77;82.33;100110.59;7359948;19;19934;-64
2023/07/11 00:33:50;;;;;;;0.10;0.10;;;;;;;16.77;82.28;100118.50;7358358;19;20449;-64
2023/07/11 00:36:16;;;;;;;0.03;0.03;;;;;;;16.73;82.37;100113.53;7358197;19;20875;-64
2023/07/11 00:38:41;;;;;;;0.10;0.10;;;;;;;16.67;81.63;100114.66;7355083;19;20029;-64
2023/07/11 00:41:08;;;;;;;0.10;0.10;;;;;;;16.64;81.35;100120.13;7355181;19;20025;-64
2023/07/11 00:43:34;;;;;;;0.00;0.00;;;;;;;16.59;81.37;100122.19;7356940;19;20093;-64
2023/07/11 00:46:15;;;;;;;0.10;0.10;;;;;;;16.57;80.73;100116.13;7353653;19;20083;-64
2023/07/11 00:49:03;;;;;;;0.10;0.10;;;;;;;16.41;81.66;100102.13;7357177;19;20010;-64
2023/07/11 00:51:35;;;;;;;0.00;0.00;;;;;;;16.49;81.80;100115.72;7355872;19;20014;-64
2023/07/11 00:54:03;;;;;;;0.00;0.00;;;;;;;16.46;82.24;100123.81;7355519;19;20814;-64
2023/07/11 00:56:32;;;;;;;;;;;;;;;16.45;79.79;100119.47;7357361;19;20017;-63
2023/07/11 00:58:58;;;;;;;0.00;0.00;;;;;;;16.41;81.14;100123.22;7356886;19;19931;-64
2023/07/11 01:01:25;;;;;;;0.10;0.10;;;;;;;16.35;81.30;100117.34;7356245;19;20375;-63
2023/07/11 01:03:52;;;;;;;0.10;0.10;;;;;;;16.35;82.18;100127.88;7357424;19;20097;-60
2023/07/11 01:06:21;;;;;;;0.00;0.00;;;;;;;16.31;81.45;100118.44;7359165;19;20015;-64
2023/07/11 01:08:49;;;;;;;0.00;0.00;;;;;;;16.30;82.10;100122.03;7353266;19;20621;-64
2023/07/11 01:11:16;;;;;;;0.10;0.10;;;;;;;16.28;81.90;100131.81;7358193;19;20089;-64
2023/07/11 01:13:42;;;;;;;0.00;0.00;;;;;;;16.26;82.06;100125.75;7353345;19;20010;-64
2023/07/11 01:16:08;;;;;;;0.00;0.00;;;;;;;16.14;82.25;100105.38;7357714;19;20026;-63
2023/07/11 01:18:34;;;;;;;0.10;0.10;;;;;;;16.14;81.84;100105.38;7355659;19;20002;-64
2023/07/11 01:20:59;;;;;;;0.10;0.10;;;;;;;16.23;81.64;100123.31;7355060;19;20022;-64
2023/07/11 01:23:26;;;;;;;0.10;0.10;;;;;;;16.21;81.98;100119.88;7357576;19;20003;-64
2023/07/11 01:26:02;;;;;;;0.10;0.10;;;;;;;16.23;81.49;100118.03;7357541;19;20014;-63
2023/07/11 01:28:28;;;;;;;0.10;0.10;;;;;;;16.21;82.49;100117.25;7356052;19;20018;-64
2023/07/11 01:30:53;;;;;;;0.10;0.10;;;;;;;16.22;82.13;100124.25;7357466;19;20002;-64
2023/07/11 01:33:19;;;;;;;0.10;0.10;;;;;;;16.23;82.22;100125.09;7352352;19;20442;-64
2023/07/11 01:35:44;;;;;;;0.10;0.10;;;;;;;16.24;82.64;100119.72;7357819;19;20025;-64
2023/07/11 01:38:10;;;;;;;0.10;0.10;;;;;;;16.25;82.35;100112.69;7350414;19;20007;-64
2023/07/11 01:40:35;;;;;;;0.10;0.10;;;;;;;16.21;82.45;100104.09;7358206;19;20003;-63
2023/07/11 01:43:01;;;;;;;0.10;0.10;;;;;;;16.29;82.34;100108.94;7349385;19;20010;-63
2023/07/11 01:45:27;;;;;;;0.10;0.10;;;;;;;16.30;82.33;100100.94;7357584;19;20014;-64
2023/07/11 01:47:53;;;;;;;0.10;0.10;;;;;;;16.31;82.37;100107.91;7357297;19;20033;-64
2023/07/11 01:50:18;;;;;;;0.10;0.10;;;;;;;16.33;82.95;100106.06;7355107;19;21061;-64
2023/07/11 01:52:43;;;;;;;0.10;0.10;;;;;;;16.36;82.82;100112.91;7357747;19;20029;-63
2023/07/11 01:55:10;;;;;;;0.10;0.10;;;;;;;16.38;82.74;100104.94;7353401;19;20010;-64
2023/07/11 01:57:35;;;;;;;0.10;0.10;;;;;;;16.40;82.82;100105.69;7352765;19;20029;-64
2023/07/11 02:00:01;;;;;;;0.10;0.10;;;;;;;16.41;82.97;100096.84;7355852;19;20518;-64
2023/07/11 02:02:26;;;;;;;0.10;0.10;;;;;;;16.43;82.96;100108.19;7354074;19;20014;-63
2023/07/11 02:04:52;;;;;;;0.10;0.10;;;;;;;16.44;82.75;100109.88;7355615;19;20031;-64
2023/07/11 02:07:18;;;;;;;0.10;0.10;;;;;;;16.46;82.56;100106.19;7352234;19;20859;-63
2023/07/11 02:09:43;;;;;;;0.10;0.10;;;;;;;16.48;82.66;100103.50;7353004;19;20018;-64
2023/07/11 02:12:10;;;;;;;0.10;0.10;;;;;;;16.47;82.73;100091.22;7353208;19;20030;-60
2023/07/11 02:14:40;;;;;;;0.10;0.10;;;;;;;16.46;82.53;100095.66;7355708;19;20027;-63
2023/07/11 02:17:07;;;;;;;0.10;0.10;;;;;;;16.52;82.63;100099.72;7355410;19;20042;-63
2023/07/11 02:19:32;;;;;;;0.10;0.10;;;;;;;16.52;82.62;100094.44;7350752;19;20262;-64
2023/07/11 02:21:57;;;;;;;0.10;0.10;;;;;;;16.54;82.42;100095.25;7354021;19;20772;-64
2023/07/11 02:24:23;;;;;;;0.10;0.10;;;;;;;16.53;81.80;100091.75;7356964;19;20013;-64
2023/07/11 02:26:48;;;;;;;0.10;0.10;;;;;;;16.48;82.07;100082.41;7353288;19;20014;-64
2023/07/11 02:29:14;;;;;;;0.10;0.10;;;;;;;16.47;82.22;100067.50;7355454;19;20028;-64
2023/07/11 02:31:40;;;;;;;0.03;0.03;;;;;;;16.50;82.19;100080.53;7350069;19;20014;-64
2023/07/11 02:34:05;;;;;;;0.10;0.10;;;;;;;16.50;82.07;100091.91;7352279;19;20572;-64
2023/07/11 02:36:31;;;;;;;0.10;0.10;;;;;;;16.50;82.59;100080.53;7353075;19;20006;-64
2023/07/11 02:38:57;;;;;;;0.10;0.10;;;;;;;16.37;82.26;100063.69;7350928;19;20010;-63
2023/07/11 02:41:22;;;;;;;0.10;0.10;;;;;;;16.49;82.66;100089.38;7350074;19;20018;-64
2023/07/11 02:43:48;;;;;;;0.00;0.00;;;;;;;16.49;82.56;100089.38;7353682;19;20095;-64
2023/07/11 02:46:15;;;;;;;0.10;0.10;;;;;;;16.48;82.82;100078.00;7353586;19;20094;-63
2023/07/11 02:48:41;;;;;;;0.00;0.00;;;;;;;16.49;82.65;100084.09;7351629;19;20006;-64
2023/07/11 02:51:07;;;;;;;0.10;0.10;;;;;;;16.50;82.46;100085.81;7346340;19;20010;-64
2023/07/11 02:53:32;;;;;;;0.03;0.03;;;;;;;16.49;82.30;100081.47;7355422;19;20011;-64
2023/07/11 02:55:57;;;;;;;0.10;0.10;;;;;;;16.48;82.37;100078.00;7345115;19;20098;-64
2023/07/11 02:58:24;;;;;;;0.10;0.10;;;;;;;16.48;82.25;100080.63;7348509;19;20070;-64
2023/07/11 03:00:53;;;;;;;0.05;0.05;;;;;;;16.49;82.40;100076.19;7355453;19;20573;-63
2023/07/11 03:03:18;;;;;;;0.10;0.10;;;;;;;16.47;82.49;100064.88;7352095;19;20097;-63
2023/07/11 03:05:49;;;;;;;0.10;0.10;;;;;;;16.37;82.34;100061.06;7355424;19;20094;-64
2023/07/11 03:08:15;;;;;;;0.10;0.10;;;;;;;16.33;82.27;100048.09;7353573;19;20429;-63
2023/07/11 03:10:41;;;;;;;0.08;0.08;;;;;;;16.43;82.58;100068.66;7352051;19;20034;-64
2023/07/11 03:13:07;;;;;;;0.10;0.10;;;;;;;16.43;82.37;100079.19;7352841;19;20473;-63
2023/07/11 03:15:37;;;;;;;0.10;0.10;;;;;;;16.43;81.72;100073.91;7352846;19;20006;-64
2023/07/11 03:18:03;;;;;;;0.10;0.10;;;;;;;16.39;81.79;100078.50;7353559;19;20003;-63
2023/07/11 03:20:29;;;;;;;0.10;0.10;;;;;;;16.37;82.09;100076.88;7345608;19;20018;-64
2023/07/11 03:22:55;;;;;;;0.00;0.00;;;;;;;16.35;82.04;100080.44;7354876;19;20026;-64
2023/07/11 03:25:21;;;;;;;0.00;0.00;;;;;;;16.32;81.84;100078.00;7355463;19;20699;-64
2023/07/11 03:27:46;;;;;;;0.08;0.08;;;;;;;16.20;82.02;100062.88;7351287;19;19999;-63
2023/07/11 03:30:12;;;;;;;0.10;0.10;;;;;;;16.30;81.89;100079.88;7332091;19;20021;-64
2023/07/11 03:32:37;;;;;;;0.10;0.10;;;;;;;16.26;82.55;100062.53;7351245;19;20003;-63
2023/07/11 03:35:03;;;;;;;0.00;0.00;;;;;;;16.30;82.28;100074.59;7352888;19;20047;-64
2023/07/11 03:37:29;;;;;;;0.10;0.10;;;;;;;16.30;82.81;100077.22;7352153;19;20022;-63
2023/07/11 03:39:55;;;;;;;0.10;0.10;;;;;;;16.31;82.37;100076.28;7352222;19;20002;-64
2023/07/11 03:42:20;;;;;;;0.10;0.10;;;;;;;16.32;82.50;100083.28;7353144;19;20022;-58
2023/07/11 03:44:46;;;;;;;0.10;0.10;;;;;;;16.31;82.27;100076.28;7363961;19;20846;-58
2023/07/11 03:47:11;;;;;;;0.10;0.10;;;;;;;16.32;82.48;100075.38;7367282;19;20648;-57
2023/07/11 03:49:37;;;;;;;0.10;0.10;;;;;;;16.31;82.56;100078.06;7367636;19;20565;-58
2023/07/11 03:52:02;;;;;;;0.10;0.10;;;;;;;16.33;82.45;100078.84;7363940;19;20050;-58
2023/07/11 03:54:28;;;;;;;0.10;0.10;;;;;;;16.33;82.21;100070.94;7368922;19;20016;-58
2023/07/11 03:56:53;;;;;;;0.10;0.10;;;;;;;16.33;82.60;100074.44;7364220;19;20013;-57
2023/07/11 03:59:20;;;;;;;0.10;0.10;;;;;;;16.33;82.05;100076.22;7364117;19;20017;-57
2023/07/11 04:01:46;;;;;;;0.10;0.10;;;;;;;16.26;82.68;100057.25;7363042;19;20878;-58
2023/07/11 04:04:11;;;;;;;0.10;0.10;;;;;;;16.33;82.83;100066.53;7368349;19;20106;-58
2023/07/11 04:06:37;;;;;;;0.10;0.10;;;;;;;16.35;82.85;100067.28;7366821;19;20014;-58
2023/07/11 04:09:02;;;;;;;0.10;0.10;;;;;;;16.23;82.33;100052.19;7365344;19;20029;-58
2023/07/11 04:11:28;;;;;;;0.10;0.10;;;;;;;16.38;82.70;100075.97;7366572;19;20022;-58
2023/07/11 04:13:53;;;;;;;0.10;0.10;;;;;;;16.38;82.55;100075.97;7364616;19;20473;-58
2023/07/11 04:16:19;;;;;;;0.00;0.00;;;;;;;16.35;82.83;100075.19;7365827;19;20014;-58
2023/07/11 04:18:44;;;;;;;0.10;0.10;;;;;;;16.40;82.80;100081.97;7368020;19;20020;-58
2023/07/11 04:21:09;;;;;;;0.10;0.10;;;;;;;16.40;82.21;100079.34;7366657;19;20087;-57
2023/07/11 04:23:35;;;;;;;0.10;0.10;;;;;;;16.41;82.39;100076.63;7366998;19;20022;-58
2023/07/11 04:26:00;;;;;;;0.10;0.10;;;;;;;16.43;82.12;100079.19;7364264;19;20042;-58
2023/07/11 04:28:26;;;;;;;0.10;0.10;;;;;;;16.43;82.28;100079.19;7367115;19;20944;-58
2023/07/11 04:30:51;;;;;;;0.10;0.10;;;;;;;16.43;82.42;100079.19;7364864;19;20027;-58
2023/07/11 04:33:17;;;;;;;0.00;0.00;;;;;;;16.30;82.41;100061.41;7365886;19;20010;-58
2023/07/11 04:35:44;;;;;;;0.10;0.10;;;;;;;16.44;82.43;100086.16;7363266;19;20011;-58
2023/07/11 04:38:10;;;;;;;0.00;0.00;;;;;;;16.42;82.73;100085.38;7364484;19;20011;-58
2023/07/11 04:40:35;;;;;;;0.10;0.10;;;;;;;16.43;82.33;100084.47;7366908;19;20129;-58
2023/07/11 04:43:01;;;;;;;0.00;0.00;;;;;;;16.43;82.49;100081.81;7363576;19;20014;-58
2023/07/11 04:45:26;;;;;;;0.10;0.10;;;;;;;16.43;82.67;100080.03;7366016;19;20036;-58
2023/07/11 04:47:52;;;;;;;0.10;0.10;;;;;;;16.44;82.52;100072.97;7365520;19;20013;-58
2023/07/11 04:50:17;;;;;;;0.10;0.10;;;;;;;16.44;82.34;100076.47;7365949;19;20021;-58
2023/07/11 04:52:44;;;;;;;0.10;0.10;;;;;;;16.45;82.37;100072.03;7363095;19;21053;-58
2023/07/11 04:55:10;;;;;;;0.10;0.10;;;;;;;16.31;82.70;100051.72;7361171;19;20089;-58
2023/07/11 04:57:35;;;;;;;0.00;0.00;;;;;;;16.45;82.83;100082.56;7353774;19;20069;-59
2023/07/11 05:00:01;;;;;;;0.10;0.10;;;;;;;16.45;82.63;100082.56;7360754;19;20033;-58
2023/07/11 05:02:27;;;;;;;0.10;0.10;;;;;;;16.45;82.48;100080.78;7353043;19;20006;-58
2023/07/11 05:04:52;;;;;;;0.10;0.10;;;;;;;16.40;82.28;100068.81;7359034;19;20010;-58
2023/07/11 05:07:18;;;;;;;0.10;0.10;;;;;;;16.45;82.56;100082.56;7358360;19;20018;-58
2023/07/11 05:09:43;;;;;;;0.10;0.10;;;;;;;16.45;82.48;100087.84;7355861;19;20010;-58
2023/07/11 05:12:10;;;;;;;0.10;0.10;;;;;;;16.44;82.10;100086.16;7357180;19;20025;-58
2023/07/11 05:14:36;;;;;;;0.10;0.10;;;;;;;16.44;81.96;100083.50;7358368;19;20118;-58
2023/07/11 05:17:02;;;;;;;0.10;0.10;;;;;;;16.38;82.53;100075.97;7354952;19;20022;-58
2023/07/11 05:19:27;;;;;;;0.10;0.10;;;;;;;16.41;82.36;100083.69;7358600;19;20689;-58
2023/07/11 05:21:53;;;;;;;0.10;0.10;;;;;;;16.43;82.71;100084.47;7358887;19;20022;-58
2023/07/11 05:24:18;;;;;;;0.10;0.10;;;;;;;16.04;82.46;100030.44;7358661;19;20093;-58
2023/07/11 05:26:44;;;;;;;0.15;0.15;;;;;;;16.43;82.28;100087.09;7356007;19;20014;-58
2023/07/11 05:29:09;;;;;;;0.10;0.10;;;;;;;16.43;82.75;100087.09;7354265;19;20021;-58
2023/07/11 05:31:35;;;;;;;0.10;0.10;;;;;;;16.42;82.87;100093.28;7358272;19;20811;-58
2023/07/11 05:34:00;;;;;;;0.10;0.10;;;;;;;16.44;82.94;100088.78;7355033;19;20007;-58
2023/07/11 05:36:33;;;;;;;0.10;0.10;;;;;;;16.47;82.55;100096.50;7358708;19;20622;-58
2023/07/11 05:39:02;;;;;;;0.10;0.10;;;;;;;16.46;82.56;100086.91;7354038;19;20827;-58
2023/07/11 05:41:28;;;;;;;0.10;0.10;;;;;;;16.08;82.57;100026.69;7354626;19;20014;-58
2023/07/11 05:43:55;;;;;;;0.10;0.10;;;;;;;16.47;82.51;100091.22;7357483;19;20022;-58
2023/07/11 05:46:21;;;;;;;0.10;0.10;;;;;;;16.41;82.55;100086.31;7356678;19;20006;-58
2023/07/11 05:48:48;;;;;;;0.10;0.10;;;;;;;16.46;82.35;100100.06;7356667;19;20011;-58
2023/07/11 05:51:15;;;;;;;0.10;0.10;;;;;;;16.46;82.18;100094.81;7358268;19;20477;-58
2023/07/11 05:53:40;;;;;;;0.05;0.05;;;;;;;16.46;82.29;100094.81;7353423;19;20033;-58
2023/07/11 05:56:06;;;;;;;0.10;0.10;;;;;;;16.44;82.06;100092.28;7358956;19;20378;-57
2023/07/11 05:58:34;;;;;;;0.10;0.10;;;;;;;16.41;82.24;100086.31;7348829;19;20034;-58
2023/07/11 06:00:59;;;;;;;0.10;0.10;;;;;;;16.45;82.21;100093.13;7356035;19;20301;-58
2023/07/11 06:03:26;;;;;;;0.00;0.00;;;;;;;16.44;82.10;100088.78;7356119;19;20665;-57
2023/07/11 06:05:55;;;;;;;0.10;0.10;;;;;;;16.43;82.33;100081.81;7351848;19;20010;-58
2023/07/11 06:08:21;;;;;;;0.05;0.05;;;;;;;16.43;82.45;100089.72;7353687;19;20356;-59
2023/07/11 06:10:46;;;;;;;0.10;0.10;;;;;;;16.43;82.29;100089.72;7353397;19;20011;-58
2023/07/11 06:13:13;;;;;;;0.10;0.10;;;;;;;16.42;81.96;100090.63;7350135;19;20396;-58
2023/07/11 06:15:39;;;;;;;0.10;0.10;;;;;;;16.42;81.90;100088.00;7353489;19;20014;-59
2023/07/11 06:18:05;;;;;;;0.10;0.10;;;;;;;16.39;81.48;100082.94;7354027;19;20071;-58
2023/07/11 06:20:31;;;;;;;0.10;0.10;;;;;;;16.37;81.58;100087.41;7356664;19;20070;-58
2023/07/11 06:22:56;;;;;;;0.10;0.10;;;;;;;16.32;82.18;100083.28;7353150;19;20018;-58
2023/07/11 06:25:22;;;;;;;0.10;0.10;;;;;;;16.32;81.91;100088.56;7350173;19;20633;-58
2023/07/11 06:27:48;;;;;;;0.10;0.10;;;;;;;16.30;82.28;100085.13;7352861;19;20462;-58
2023/07/11 06:30:13;;;;;;;0.10;0.10;;;;;;;16.30;82.20;100090.41;7354981;19;20494;-58
2023/07/11 06:32:39;;;;;;;0.10;0.10;;;;;;;16.19;82.34;100071.72;7351898;19;20018;-58
2023/07/11 06:35:05;;;;;;;0.10;0.10;;;;;;;16.33;82.41;100094.66;7353002;19;20011;-58
2023/07/11 06:37:30;;;;;;;0.10;0.10;;;;;;;16.38;82.62;100094.41;7351838;19;20018;-58
2023/07/11 06:39:56;;;;;;;0.10;0.10;;;;;;;16.40;82.74;100096.00;7353774;19;20722;-58
2023/07/11 06:42:21;;;;;;;0.10;0.10;;;;;;;16.42;82.84;100088.00;7355833;19;20790;-58
2023/07/11 06:44:46;;;;;;;0.10;0.10;;;;;;;16.51;82.83;100095.41;7349780;19;20093;-58
2023/07/11 06:47:12;;;;;;;0.08;0.08;;;;;;;16.55;82.66;100095.13;7350608;19;20015;-58
2023/07/11 06:49:37;;;;;;;0.10;0.10;;;;;;;16.57;83.01;100092.41;7353942;19;20015;-58
2023/07/11 06:52:03;;;;;;;0.10;0.10;;;;;;;16.66;82.88;100102.44;7348134;19;20019;-58
2023/07/11 06:54:29;;;;;;;0.08;0.08;;;;;;;16.31;82.51;100038.56;7351751;19;20007;-58
2023/07/11 06:56:57;;;;;;;0.10;0.10;;;;;;;16.75;82.91;100094.03;7350939;19;20007;-58
2023/07/11 06:59:23;;;;;;;0.10;0.10;;;;;;;16.79;82.38;100097.34;7348978;19;20034;-58
2023/07/11 07:01:49;;;;;;;0.10;0.10;;;;;;;16.84;82.68;100097.94;7350127;19;20017;-58
2023/07/11 07:04:15;;;;;;;0.10;0.10;;;;;;;16.89;82.44;100095.03;7313614;19;20034;-63
2023/07/11 07:06:41;;;;;;;0.10;0.10;;;;;;;16.94;82.35;100098.25;7354355;19;20023;-62
2023/07/11 07:09:07;;;;;;;0.10;0.10;;;;;;;16.94;82.60;100085.06;7352027;19;20018;-63
2023/07/11 07:11:35;;;;;;;0.10;0.10;;;;;;;17.03;82.39;100089.75;7351003;19;20014;-63
2023/07/11 07:14:01;;;;;;;0.10;0.10;;;;;;;17.07;82.48;100091.28;7354068;19;20011;-63
2023/07/11 07:16:28;;;;;;;0.10;0.10;;;;;;;17.10;82.06;100091.13;7354204;19;20014;-63
2023/07/11 07:18:54;;;;;;;0.05;0.05;;;;;;;17.12;82.10;100084.78;7353231;19;20018;-62
2023/07/11 07:21:20;;;;;;;0.10;0.10;;;;;;;17.16;82.19;100089.91;7352538;19;20562;-63
2023/07/11 07:23:45;;;;;;;0.10;0.10;;;;;;;16.79;81.87;100027.00;7350505;19;20023;-62
2023/07/11 07:26:10;;;;;;;0.05;0.05;;;;;;;17.23;82.22;100096.50;7355757;19;20577;-63
2023/07/11 07:28:36;;;;;;;0.10;0.10;;;;;;;17.29;82.11;100097.00;7348419;19;20458;-63
2023/07/11 07:31:05;;;;;;;0.10;0.10;;;;;;;17.35;82.43;100096.63;7351164;19;20022;-63
2023/07/11 07:33:31;;;;;;;0.10;0.10;;;;;;;17.41;82.03;100097.19;7346742;19;20626;-62
2023/07/11 07:35:59;;;;;;;0.10;0.10;;;;;;;17.47;82.21;100099.44;7347325;19;20765;-62
2023/07/11 07:38:27;;;;;;;0.10;0.10;;;;;;;17.49;81.73;100097.59;7354212;19;20014;-62
2023/07/11 07:40:53;;;;;;;0.10;0.10;;;;;;;17.54;81.74;100100.78;7349763;19;20014;-62
2023/07/11 07:43:20;;;;;;;0.10;0.10;;;;;;;17.57;81.49;100092.66;7350070;19;20042;-62
2023/07/11 07:45:53;;;;;;;0.10;0.10;;;;;;;17.62;81.44;100098.50;7351637;19;20323;-62
2023/07/11 07:48:19;;;;;;;0.08;0.08;;;;;;;17.61;81.41;100087.09;7346899;19;20026;-63
2023/07/11 07:50:45;;;;;;;0.10;0.10;;;;;;;17.67;81.37;100091.16;7349635;19;20030;-62
2023/07/11 07:53:15;;;;;;;0.10;0.10;;;;;;;17.77;81.78;100091.47;7351605;19;20638;-62
2023/07/11 07:55:42;;;;;;;0.10;0.10;;;;;;;17.79;81.78;100095.72;7329315;19;20110;-62
2023/07/11 07:58:08;;;;;;;0.10;0.10;;;;;;;17.83;81.43;100091.94;7353718;19;20034;-63
2023/07/11 08:00:33;;;;;;;0.10;0.10;;;;;;;17.86;81.25;100090.91;7352688;19;20041;-62
2023/07/11 08:02:59;;;;;;;0.10;0.10;;;;;;;17.93;81.12;100091.34;7352927;19;20552;-63
2023/07/11 08:05:25;;;;;;;0.00;0.00;;;;;;;17.96;80.93;100078.81;7354323;19;20785;-63
2023/07/11 08:07:50;;;;;;;0.10;0.10;;;;;;;18.03;81.12;100082.75;7354861;19;20011;-62
2023/07/11 08:10:16;;;;;;;0.00;0.00;;;;;;;18.02;81.10;100067.00;7354151;19;20015;-63
2023/07/11 08:12:43;;;;;;;0.10;0.10;;;;;;;18.19;81.65;100077.34;7334178;19;20481;-63
2023/07/11 08:15:10;;;;;;;0.00;0.00;;;;;;;18.26;81.49;100076.00;7348381;19;20430;-60
2023/07/11 08:17:35;;;;;;;0.10;0.10;;;;;;;18.33;81.33;100077.28;7355107;19;20035;-62
2023/07/11 08:20:01;;;;;;;0.10;0.10;;;;;;;18.39;81.14;100079.53;7351618;19;20785;-62
2023/07/11 08:22:26;;;;;;;0.10;0.10;;;;;;;18.42;81.11;100071.41;7352859;19;20014;-62
2023/07/11 08:24:52;;;;;;;0.10;0.10;;;;;;;18.53;81.32;100072.50;7348453;19;20660;-62
2023/07/11 08:27:17;;;;;;;0.10;0.10;;;;;;;18.61;80.50;100078.16;7353512;19;20010;-63
2023/07/11 08:29:45;;;;;;;0.05;0.05;;;;;;;18.67;80.26;100083.03;7351857;19;20090;-62
2023/07/11 08:32:14;;;;;;;0.10;0.10;;;;;;;18.76;80.22;100076.31;7356484;19;20010;-62
2023/07/11 08:34:41;;;;;;;0.10;0.10;;;;;;;18.79;80.18;100068.16;7359144;19;20809;-62
2023/07/11 08:37:07;;;;;;;0.10;0.10;;;;;;;18.77;80.46;100054.22;7355311;19;20022;-63
2023/07/11 08:39:32;;;;;;;0.10;0.10;;;;;;;18.90;80.29;100069.13;7362037;19;20355;-62
2023/07/11 08:42:05;;;;;;;0.10;0.10;;;;;;;19.03;80.06;100070.97;7356868;19;20011;-64
2023/07/11 08:44:41;;;;;;;0.10;0.10;;;;;;;19.08;79.93;100072.34;7360205;19;20510;-63
2023/07/11 08:47:23;;;;;;;0.10;0.10;;;;;;;19.16;80.10;100075.34;7353172;19;20024;-62
2023/07/11 08:50:01;;;;;;;0.08;0.08;;;;;;;19.25;79.96;100071.19;7360592;19;20089;-62
2023/07/11 08:52:29;;;;;;;0.10;0.10;;;;;;;19.28;79.92;100072.78;7362542;19;20019;-62
2023/07/11 08:55:12;;;;;;;0.10;0.10;;;;;;;19.39;79.58;100062.31;7359096;19;20585;-62
2023/07/11 08:57:44;;;;;;;0.08;0.08;;;;;;;19.47;79.60;100067.06;7358896;19;20888;-62
2023/07/11 09:00:16;;;;;;;0.10;0.10;;;;;;;19.56;79.73;100066.41;7356991;19;20832;-62
2023/07/11 09:02:55;;;;;;;0.10;0.10;;;;;;;19.63;79.87;100052.69;7358950;19;20010;-62
2023/07/11 09:05:40;;;;;;;0.10;0.10;;;;;;;19.75;79.54;100066.00;7354559;19;20739;-62
2023/07/11 09:08:12;;;;;;;0.10;0.10;;;;;;;19.78;79.29;100065.78;7358234;19;20010;-62
2023/07/11 09:10:56;;;;;;;0.10;0.10;;;;;;;19.76;78.31;100067.69;7356068;19;20015;-62
2023/07/11 09:13:27;;;;;;;0.10;0.10;;;;;;;19.81;78.48;100069.06;7354659;19;20279;-63
2023/07/11 09:16:05;;;;;;;0.10;0.10;;;;;;;19.81;78.59;100054.97;7358820;19;20014;-62
2023/07/11 09:18:33;;;;;;;0.10;0.10;;;;;;;19.79;78.37;100063.03;7357050;19;20017;-63
2023/07/11 09:21:08;;;;;;;0.10;0.10;;;;;;;19.90;78.78;100064.91;7357317;19;20018;-62
2023/07/11 09:23:42;;;;;;;0.10;0.10;;;;;;;19.93;78.38;100062.06;7358498;19;20014;-62
2023/07/11 09:26:15;;;;;;;0.10;0.10;;;;;;;19.95;78.50;100068.06;7357066;19;20017;-62
2023/07/11 09:28:41;;;;;;;0.00;0.00;;;;;;;19.95;78.57;100060.97;7358542;19;20037;-63
2023/07/11 09:31:12;;;;;;;0.10;0.10;;;;;;;20.02;78.57;100068.47;7358570;19;20010;-63
2023/07/11 09:33:49;;;;;;;0.10;0.10;;;;;;;20.07;78.08;100068.97;7357644;19;20483;-63
2023/07/11 09:36:30;;;;;;;0.10;0.10;;;;;;;20.18;78.95;100069.09;7357627;19;20010;-63
2023/07/11 09:39:23;;;;;;;0.10;0.10;;;;;;;20.37;78.31;100065.91;7354754;19;20248;-63
2023/07/11 09:41:59;;;;;;;0.10;0.10;;;;;;;20.53;77.72;100057.69;7250802;19;2004467;-63
2023/07/11 09:44:24;;;;;;;0.10;0.10;;;;;;;20.65;77.05;100064.75;7361054;19;20588;-63
2023/07/11 09:46:50;;;;;;;0.10;0.10;;;;;;;20.85;76.57;100064.09;7352958;19;20010;-63
2023/07/11 09:49:24;;;;;;;0.10;0.10;;;;;;;21.12;76.80;100060.31;7358908;19;20025;-63
2023/07/11 09:51:59;;;;;;;0.10;0.10;;;;;;;21.36;76.57;100069.06;7354357;19;20018;-63
2023/07/11 09:54:27;;;;;;;0.10;0.10;;;;;;;21.49;75.61;100063.63;7358638;19;20006;-63
2023/07/11 09:56:55;;;;;;;0.10;0.10;;;;;;;21.61;75.15;100069.81;7354724;19;20014;-63
2023/07/11 09:59:21;;;;;;;0.10;0.10;;;;;;;21.72;75.00;100067.97;7355567;19;20113;-63
2023/07/11 10:01:55;;;;;;;0.10;0.10;;;;;;;21.90;75.34;100064.84;7357892;19;20086;-63
2023/07/11 10:04:23;;;;;;;0.10;0.10;;;;;;;21.91;74.39;100074.50;7357398;19;20026;-63
2023/07/11 10:06:53;;;;;;;0.10;0.10;;;;;;;21.94;74.53;100080.41;7356076;19;20069;-62
2023/07/11 10:09:30;;;;;;;0.10;0.10;;;;;;;21.91;74.59;100077.16;7350728;19;20014;-59
2023/07/11 10:11:59;;;;;;;0.10;0.10;;;;;;;21.87;75.06;100073.91;7358073;19;20806;-58
2023/07/11 10:14:33;;;;;;;0.10;0.10;;;;;;;21.78;75.54;100069.31;7357367;19;20022;-58
2023/07/11 10:17:03;;;;;;;0.10;0.10;;;;;;;21.85;75.72;100070.53;7354835;19;20014;-58
2023/07/11 10:19:28;;;;;;;0.10;0.10;;;;;;;21.82;75.53;100068.09;7357061;19;20006;-58
2023/07/11 10:21:58;;;;;;;0.10;0.10;;;;;;;21.91;75.97;100064.72;7356801;19;20018;-58
2023/07/11 10:24:26;;;;;;;0.10;0.10;;;;;;;21.96;76.33;100067.84;7358873;19;20020;-59
2023/07/11 10:27:02;;;;;;;0.10;0.10;;;;;;;22.11;75.91;100064.97;7354274;19;20017;-58
2023/07/11 10:29:36;;;;;;;0.10;0.10;;;;;;;22.17;75.33;100069.78;7356273;19;20077;-58
2023/07/11 10:32:06;;;;;;;0.10;0.10;;;;;;;22.15;74.86;100066.38;7349873;19;20010;-58
2023/07/11 10:34:51;;;;;;;0.10;0.10;;;;;;;22.22;75.57;100072.91;7352908;19;20497;-58
2023/07/11 10:37:53;;;;;;;0.10;0.10;;;;;;;22.21;75.66;100076.53;7353906;19;20031;-59
2023/07/11 10:40:29;;;;;;;0.10;0.10;;;;;;;22.12;75.13;100071.97;7251635;19;2004416;-58
2023/07/11 10:43:17;;;;;;;0.10;0.10;;;;;;;22.18;75.78;100076.78;7354935;19;20011;-58
2023/07/11 10:45:47;;;;;;;0.10;0.10;;;;;;;22.10;75.77;100072.06;7355547;19;20002;-58
2023/07/11 10:48:25;;;;;;;0.10;0.10;;;;;;;22.13;75.89;100073.66;7355492;19;20023;-57
2023/07/11 10:51:19;;;;;;;0.10;0.10;;;;;;;22.15;76.63;100069.03;7355271;19;20040;-58
2023/07/11 10:53:53;;;;;;;0.10;0.10;;;;;;;22.21;75.79;100076.53;7250836;19;2004190;-58
2023/07/11 10:56:23;;;;;;;0.10;0.10;;;;;;;22.30;76.12;100073.13;7354439;19;20011;-57
2023/07/11 10:58:49;;;;;;;0.10;0.10;;;;;;;22.36;76.19;100075.28;7355092;19;20009;-58
2023/07/11 11:01:57;;;;;;;0.10;0.10;;;;;;;22.58;76.35;100073.53;7355592;19;20029;-58
2023/07/11 11:04:48;;;;;;;0.20;0.20;;;;;;;22.70;76.81;100073.34;7249353;19;2004341;-58
2023/07/11 11:07:27;;;;;;;0.10;0.10;;;;;;;22.74;75.95;100074.78;7352251;19;19998;-58
2023/07/11 11:09:58;;;;;;;0.10;0.10;;;;;;;22.78;75.69;100076.22;7352971;19;20006;-58
2023/07/11 11:12:55;;;;;;;0.10;0.10;;;;;;;22.84;75.77;100072.19;7354159;19;20010;-58
2023/07/11 11:15:32;;;;;;;0.10;0.10;;;;;;;22.84;75.58;100066.88;7251808;19;2004414;-58
2023/07/11 11:18:25;;;;;;;0.15;0.15;;;;;;;22.79;75.08;100066.41;7353708;19;20074;-58
2023/07/11 11:21:35;;;;;;;0.10;0.10;;;;;;;22.93;76.45;100060.81;7254323;19;2004253;-58
2023/07/11 11:24:40;;;;;;;0.10;0.10;;;;;;;23.11;76.33;100054.88;7247894;19;2004509;-59
2023/07/11 11:27:33;;;;;;;0.10;0.10;;;;;;;23.37;76.73;100058.84;7250838;19;2004441;-58
2023/07/11 11:30:10;;;;;;;0.10;0.10;;;;;;;23.79;76.10;100066.75;7252876;19;2004478;-58
2023/07/11 11:32:52;;;;;;;0.20;0.20;;;;;;;24.31;74.79;100062.09;7353970;19;20007;-58